Time;durP1;ratioP1;P1;durP2;ratioP2;P2;SDS_P1;SDS_P2;PMS_P1;PMS_P2;Temp;Humidity;BMP_temperature;BMP_pressure;BME280_temperature;BME280_humidity;BME280_pressure;Samples;Min_cycle;Max_cycle;Signal;HPM_P1;HPM_P2
2023/01/21 00:00:28;;;;;;;8.80;8.40;;;;;;;;;;5101422;28;20467;-65
2023/01/21 00:02:54;;;;;;;9.63;9.13;;;;;;;;;;5101254;28;20023;-65
2023/01/21 00:05:19;;;;;;;9.10;8.70;;;;;;;;;;5107955;28;20019;-64
2023/01/21 00:07:44;;;;;;;8.80;8.40;;;;;;;;;;5101319;28;20110;-64
2023/01/21 00:10:09;;;;;;;10.13;9.63;;;;;;;;;;5094338;28;20030;-64
2023/01/21 00:12:36;;;;;;;8.80;8.40;;;;;;;;;;5092624;28;20066;-64
2023/01/21 00:15:01;;;;;;;9.30;8.90;;;;;;;;;;5091790;28;20020;-64
2023/01/21 00:17:27;;;;;;;8.98;8.57;;;;;;;;;;5095183;28;20027;-64
2023/01/21 00:19:52;;;;;;;9.77;9.27;;;;;;;;;;5100971;28;20107;-64
2023/01/21 00:22:17;;;;;;;9.40;9.00;;;;;;;;;;5098962;28;20479;-65
2023/01/21 00:24:42;;;;;;;8.88;8.48;;;;;;;;;;5098297;28;20102;-64
2023/01/21 00:27:08;;;;;;;9.80;9.30;;;;;;;;;;5095378;28;20096;-63
2023/01/21 00:29:33;;;;;;;9.00;8.60;;;;;;;;;;5098898;28;20514;-64
2023/01/21 00:31:59;;;;;;;9.10;8.70;;;;;;;;;;5101171;28;20031;-64
2023/01/21 00:34:24;;;;;;;9.20;8.80;;;;;;;;;;5088066;28;20103;-65
2023/01/21 00:36:49;;;;;;;9.05;8.65;;;;;;;;;;5086327;28;20055;-65
2023/01/21 00:39:14;;;;;;;9.23;8.82;;;;;;;;;;5099476;28;20052;-65
2023/01/21 00:41:40;;;;;;;9.57;9.10;;;;;;;;;;5109579;28;20023;-66
2023/01/21 00:44:05;;;;;;;9.23;8.82;;;;;;;;;;5100016;28;20047;-65
2023/01/21 00:46:31;;;;;;;8.90;8.50;;;;;;;;;;5085075;28;20032;-66
2023/01/21 00:48:56;;;;;;;9.02;8.63;;;;;;;;;;5103137;28;20020;-64
2023/01/21 00:51:22;;;;;;;8.90;8.50;;;;;;;;;;5088936;28;20026;-65
2023/01/21 00:53:47;;;;;;;9.90;9.40;;;;;;;;;;5093442;28;20085;-65
2023/01/21 00:56:13;;;;;;;9.20;8.80;;;;;;;;;;5087254;28;20380;-65
2023/01/21 00:58:38;;;;;;;9.32;8.93;;;;;;;;;;5104187;28;20016;-65
2023/01/21 01:01:04;;;;;;;9.27;8.88;;;;;;;;;;5099524;28;20028;-65
2023/01/21 01:03:29;;;;;;;8.82;8.43;;;;;;;;;;5102728;28;20064;-66
2023/01/21 01:05:54;;;;;;;9.00;8.60;;;;;;;;;;5101324;28;20030;-65
2023/01/21 01:08:20;;;;;;;9.20;8.80;;;;;;;;;;5104030;28;20016;-65
2023/01/21 01:10:45;;;;;;;9.25;8.85;;;;;;;;;;5096634;28;20213;-64
2023/01/21 01:13:11;;;;;;;9.00;8.60;;;;;;;;;;5100469;28;20047;-66
2023/01/21 01:15:36;;;;;;;9.00;8.60;;;;;;;;;;5106094;28;20470;-65
2023/01/21 01:18:01;;;;;;;9.18;8.77;;;;;;;;;;5094416;28;20039;-64
2023/01/21 01:20:27;;;;;;;8.85;8.45;;;;;;;;;;5105020;28;20020;-64
2023/01/21 01:22:52;;;;;;;9.30;8.90;;;;;;;;;;5105266;28;20492;-65
2023/01/21 01:25:17;;;;;;;9.18;8.77;;;;;;;;;;5107339;28;20103;-64
2023/01/21 01:27:43;;;;;;;9.07;8.68;;;;;;;;;;5107712;28;20047;-65
2023/01/21 01:30:08;;;;;;;9.80;9.30;;;;;;;;;;5096460;28;20017;-65
2023/01/21 01:32:33;;;;;;;9.15;8.75;;;;;;;;;;5097088;28;20039;-64
2023/01/21 01:34:59;;;;;;;9.23;8.82;;;;;;;;;;5100414;28;20074;-65
2023/01/21 01:37:24;;;;;;;9.07;8.68;;;;;;;;;;5103475;28;20012;-66
2023/01/21 01:39:49;;;;;;;8.80;8.40;;;;;;;;;;5090737;28;20026;-66
2023/01/21 01:42:16;;;;;;;8.85;8.45;;;;;;;;;;5099445;28;20111;-65
2023/01/21 01:45:01;;;;;;;8.77;8.38;;;;;;;;;;5096831;28;20048;-65
2023/01/21 01:47:29;;;;;;;9.20;8.80;;;;;;;;;;5105508;28;20478;-65
2023/01/21 01:49:55;;;;;;;9.00;8.60;;;;;;;;;;5102864;28;20466;-65
2023/01/21 01:52:21;;;;;;;8.77;8.38;;;;;;;;;;5102769;28;20106;-65
2023/01/21 01:54:48;;;;;;;9.23;8.82;;;;;;;;;;5103566;28;20027;-65
2023/01/21 01:57:16;;;;;;;9.20;8.80;;;;;;;;;;5104114;28;20047;-64
2023/01/21 01:59:42;;;;;;;8.93;8.52;;;;;;;;;;5099210;28;20391;-65
2023/01/21 02:02:13;;;;;;;9.23;8.82;;;;;;;;;;5103072;28;20039;-65
2023/01/21 02:04:53;;;;;;;9.02;8.63;;;;;;;;;;5104456;28;20039;-65
2023/01/21 02:07:21;;;;;;;9.40;9.00;;;;;;;;;;5101857;28;20016;-64
2023/01/21 02:09:46;;;;;;;9.27;8.88;;;;;;;;;;5099660;28;20028;-65
2023/01/21 02:12:12;;;;;;;9.63;9.13;;;;;;;;;;5101150;28;20039;-65
2023/01/21 02:14:41;;;;;;;9.45;9.05;;;;;;;;;;5106519;28;20015;-64
2023/01/21 02:17:07;;;;;;;9.00;8.60;;;;;;;;;;5098210;28;20031;-65
2023/01/21 02:19:51;;;;;;;8.93;8.52;;;;;;;;;;5103972;28;20391;-64
2023/01/21 02:22:34;;;;;;;8.90;8.50;;;;;;;;;;5102214;28;20434;-65
2023/01/21 02:25:12;;;;;;;9.35;8.95;;;;;;;;;;5081901;28;20032;-64
2023/01/21 02:27:50;;;;;;;9.40;9.00;;;;;;;;;;5095302;28;20498;-64
2023/01/21 02:30:15;;;;;;;9.20;8.80;;;;;;;;;;5102758;28;20031;-65
2023/01/21 02:33:00;;;;;;;9.20;8.80;;;;;;;;;;5103693;28;20011;-65
2023/01/21 02:35:30;;;;;;;9.00;8.60;;;;;;;;;;5108023;28;20072;-65
2023/01/21 02:38:05;;;;;;;8.95;8.55;;;;;;;;;;5099158;28;20395;-65
2023/01/21 02:40:42;;;;;;;8.70;8.30;;;;;;;;;;5096424;28;20613;-64
2023/01/21 02:43:23;;;;;;;9.27;8.88;;;;;;;;;;5095552;28;20482;-65
2023/01/21 02:45:52;;;;;;;9.60;9.10;;;;;;;;;;5105295;28;20040;-64
2023/01/21 02:48:25;;;;;;;9.05;8.65;;;;;;;;;;5098977;28;20145;-65
2023/01/21 02:50:51;;;;;;;9.02;8.63;;;;;;;;;;5101220;28;20050;-64
2023/01/21 02:53:26;;;;;;;9.30;8.90;;;;;;;;;;5098222;28;20384;-64
2023/01/21 02:55:51;;;;;;;8.98;8.57;;;;;;;;;;5101515;28;20075;-65
2023/01/21 02:58:18;;;;;;;9.10;8.70;;;;;;;;;;5102062;28;20434;-65
2023/01/21 03:00:46;;;;;;;9.02;8.63;;;;;;;;;;5100425;28;20031;-64
2023/01/21 03:03:11;;;;;;;9.20;8.80;;;;;;;;;;5098574;28;20086;-65
2023/01/21 03:06:05;;;;;;;9.45;9.00;;;;;;;;;;5106739;28;20107;-65
2023/01/21 03:08:43;;;;;;;9.20;8.80;;;;;;;;;;5103053;28;20417;-65
2023/01/21 03:11:13;;;;;;;9.68;9.18;;;;;;;;;;5102285;28;20106;-65
2023/01/21 03:16:56;;;;;;;8.88;8.48;;;;;;;;;;5104948;28;20051;-65
2023/01/21 03:19:24;;;;;;;9.00;8.60;;;;;;;;;;5101018;28;20053;-65
2023/01/21 03:21:50;;;;;;;9.60;9.10;;;;;;;;;;5099931;28;20116;-65
2023/01/21 03:24:15;;;;;;;9.30;8.90;;;;;;;;;;5096986;28;20498;-65
2023/01/21 03:26:43;;;;;;;8.98;8.57;;;;;;;;;;5097910;28;20020;-64
2023/01/21 03:29:10;;;;;;;9.32;8.93;;;;;;;;;;5102008;28;20511;-64
2023/01/21 03:31:38;;;;;;;9.05;8.65;;;;;;;;;;5104957;28;20065;-65
2023/01/21 03:34:05;;;;;;;10.02;9.52;;;;;;;;;;5098500;28;20028;-65
2023/01/21 03:36:31;;;;;;;9.10;8.70;;;;;;;;;;5084787;28;20470;-65
2023/01/21 03:38:56;;;;;;;9.20;8.80;;;;;;;;;;5109753;28;20111;-65
2023/01/21 03:41:24;;;;;;;9.10;8.70;;;;;;;;;;5099195;28;20035;-64
2023/01/21 03:43:49;;;;;;;9.73;9.23;;;;;;;;;;5104410;28;20500;-65
2023/01/21 03:46:20;;;;;;;9.43;9.02;;;;;;;;;;5100287;28;20092;-64
2023/01/21 03:48:47;;;;;;;9.38;8.98;;;;;;;;;;5095116;28;20024;-65
2023/01/21 03:51:18;;;;;;;9.30;8.90;;;;;;;;;;5105277;28;20091;-65
2023/01/21 03:53:43;;;;;;;9.30;8.90;;;;;;;;;;5102172;28;20039;-65
2023/01/21 03:56:09;;;;;;;9.30;8.90;;;;;;;;;;5101468;28;20079;-64
2023/01/21 03:58:34;;;;;;;8.93;8.52;;;;;;;;;;5099652;28;20096;-65
2023/01/21 04:00:59;;;;;;;9.05;8.65;;;;;;;;;;5101520;28;20493;-65
2023/01/21 04:03:25;;;;;;;8.80;8.40;;;;;;;;;;5097489;28;20024;-65
2023/01/21 04:05:50;;;;;;;9.88;9.38;;;;;;;;;;5089709;28;20048;-65
2023/01/21 04:08:15;;;;;;;9.63;9.13;;;;;;;;;;5094450;28;20012;-65
2023/01/21 04:10:41;;;;;;;9.40;9.00;;;;;;;;;;5104138;28;20023;-66
2023/01/21 04:13:06;;;;;;;8.90;8.50;;;;;;;;;;5096868;28;20031;-65
2023/01/21 04:15:31;;;;;;;8.90;8.50;;;;;;;;;;5096534;28;20035;-66
2023/01/21 04:17:57;;;;;;;8.98;8.57;;;;;;;;;;5100555;28;20069;-65
2023/01/21 04:20:22;;;;;;;9.75;9.25;;;;;;;;;;5100675;28;20077;-66
2023/01/21 04:22:47;;;;;;;9.18;8.77;;;;;;;;;;5099186;28;20390;-65
2023/01/21 04:25:13;;;;;;;9.20;8.80;;;;;;;;;;5094002;28;20075;-65
2023/01/21 04:27:38;;;;;;;9.13;8.73;;;;;;;;;;5105889;28;20529;-66
2023/01/21 04:30:03;;;;;;;9.35;8.95;;;;;;;;;;5101072;28;20028;-65
2023/01/21 04:32:29;;;;;;;9.10;8.70;;;;;;;;;;5081017;28;20475;-65
2023/01/21 04:34:54;;;;;;;9.10;8.70;;;;;;;;;;5097762;28;20019;-65
2023/01/21 04:37:20;;;;;;;9.20;8.80;;;;;;;;;;5101444;28;20024;-65
2023/01/21 04:39:45;;;;;;;9.43;9.02;;;;;;;;;;5099625;28;20107;-66
2023/01/21 04:42:10;;;;;;;9.18;8.77;;;;;;;;;;5091703;28;20111;-65
2023/01/21 04:44:35;;;;;;;9.52;9.05;;;;;;;;;;5099520;28;20298;-65
2023/01/21 04:47:01;;;;;;;9.43;9.00;;;;;;;;;;5094730;28;20016;-65
2023/01/21 04:49:26;;;;;;;8.88;8.48;;;;;;;;;;5087626;28;20372;-65
2023/01/21 04:51:51;;;;;;;9.15;8.75;;;;;;;;;;5095345;28;20077;-65
2023/01/21 04:54:17;;;;;;;9.05;8.65;;;;;;;;;;5097545;28;20020;-65
2023/01/21 04:56:42;;;;;;;9.10;8.70;;;;;;;;;;5101676;28;20056;-65
2023/01/21 04:59:07;;;;;;;9.57;9.13;;;;;;;;;;5085836;28;20112;-64
2023/01/21 05:01:33;;;;;;;9.45;9.05;;;;;;;;;;5099624;28;20024;-65
2023/01/21 05:03:58;;;;;;;9.30;8.90;;;;;;;;;;5107450;28;20387;-65
2023/01/21 05:06:24;;;;;;;9.60;9.15;;;;;;;;;;5101547;28;20084;-64
2023/01/21 05:08:50;;;;;;;9.40;9.00;;;;;;;;;;5102856;28;20472;-64
2023/01/21 05:11:17;;;;;;;9.32;8.93;;;;;;;;;;5107340;28;20085;-65
2023/01/21 05:13:42;;;;;;;9.45;9.05;;;;;;;;;;5102037;28;20479;-67
2023/01/21 05:16:08;;;;;;;9.25;8.85;;;;;;;;;;5077990;28;20024;-65
2023/01/21 05:18:37;;;;;;;9.73;9.23;;;;;;;;;;5085399;28;20028;-64
2023/01/21 05:21:02;;;;;;;9.30;8.90;;;;;;;;;;5103688;28;20432;-64
2023/01/21 05:23:28;;;;;;;9.20;8.80;;;;;;;;;;5103466;28;20085;-64
2023/01/21 05:25:53;;;;;;;9.73;9.23;;;;;;;;;;5099091;28;20016;-65
2023/01/21 05:28:18;;;;;;;9.13;8.73;;;;;;;;;;5102853;28;20072;-65
2023/01/21 05:30:44;;;;;;;9.20;8.80;;;;;;;;;;5106678;28;20035;-64
2023/01/21 05:33:09;;;;;;;9.63;9.13;;;;;;;;;;5101772;28;20028;-65
2023/01/21 05:35:34;;;;;;;9.68;9.18;;;;;;;;;;5109601;28;20019;-65
2023/01/21 05:38:00;;;;;;;9.70;9.20;;;;;;;;;;5103893;28;20020;-65
2023/01/21 05:40:25;;;;;;;9.43;9.00;;;;;;;;;;5090482;28;20020;-65
2023/01/21 05:42:50;;;;;;;9.10;8.70;;;;;;;;;;5099964;28;20063;-66
2023/01/21 05:45:16;;;;;;;9.32;8.93;;;;;;;;;;5098733;28;20749;-65
2023/01/21 05:47:41;;;;;;;9.50;9.10;;;;;;;;;;5104856;28;20531;-65
2023/01/21 05:50:07;;;;;;;9.35;8.90;;;;;;;;;;5099810;28;20371;-66
2023/01/21 05:52:33;;;;;;;10.13;9.63;;;;;;;;;;5103896;28;20023;-65
2023/01/21 05:54:58;;;;;;;9.27;8.88;;;;;;;;;;5103298;28;20024;-64
2023/01/21 05:57:23;;;;;;;9.15;8.75;;;;;;;;;;5099573;28;20403;-65
2023/01/21 05:59:49;;;;;;;9.20;8.80;;;;;;;;;;5100775;28;20024;-65
2023/01/21 06:02:14;;;;;;;9.40;9.00;;;;;;;;;;5096539;28;20031;-65
2023/01/21 06:04:39;;;;;;;9.75;9.25;;;;;;;;;;5097167;28;20066;-65
2023/01/21 06:07:05;;;;;;;9.50;9.00;;;;;;;;;;5105793;28;20361;-64
2023/01/21 06:09:30;;;;;;;9.57;9.10;;;;;;;;;;5098589;28;20024;-65
2023/01/21 06:11:55;;;;;;;9.18;8.77;;;;;;;;;;5099698;28;20020;-65
2023/01/21 06:14:20;;;;;;;9.38;8.98;;;;;;;;;;5097030;28;20027;-65
2023/01/21 06:16:46;;;;;;;9.27;8.88;;;;;;;;;;5099160;28;20035;-64
2023/01/21 06:19:11;;;;;;;9.18;8.77;;;;;;;;;;5097954;28;20500;-65
2023/01/21 06:21:36;;;;;;;9.10;8.70;;;;;;;;;;5101811;28;20034;-65
2023/01/21 06:24:02;;;;;;;8.73;8.32;;;;;;;;;;5101663;28;20047;-65
2023/01/21 06:26:27;;;;;;;8.68;8.27;;;;;;;;;;5099234;28;20015;-65
2023/01/21 06:28:54;;;;;;;8.93;8.52;;;;;;;;;;5104921;28;20028;-66
2023/01/21 06:31:20;;;;;;;9.32;8.93;;;;;;;;;;5100827;28;20487;-65
2023/01/21 06:33:45;;;;;;;9.70;9.23;;;;;;;;;;5099074;28;20020;-66
2023/01/21 06:36:10;;;;;;;9.63;9.23;;;;;;;;;;5092228;28;20051;-66
2023/01/21 06:38:36;;;;;;;9.50;9.10;;;;;;;;;;5098432;28;20024;-66
2023/01/21 06:41:01;;;;;;;9.68;9.25;;;;;;;;;;5104625;28;20030;-67
2023/01/21 06:43:27;;;;;;;9.90;9.40;;;;;;;;;;5096071;28;20394;-65
2023/01/21 06:45:52;;;;;;;10.50;10.00;;;;;;;;;;5099385;28;20058;-65
2023/01/21 06:48:18;;;;;;;9.50;9.10;;;;;;;;;;5098834;28;20019;-66
2023/01/21 06:50:43;;;;;;;9.35;8.95;;;;;;;;;;5102606;28;20024;-64
2023/01/21 06:53:08;;;;;;;9.73;9.32;;;;;;;;;;5102614;28;20027;-66
2023/01/21 06:55:34;;;;;;;10.07;9.57;;;;;;;;;;5101412;28;20475;-66
2023/01/21 06:57:59;;;;;;;9.77;9.38;;;;;;;;;;5100892;28;20528;-64
2023/01/21 07:00:24;;;;;;;9.35;8.95;;;;;;;;;;5107012;28;20076;-65
2023/01/21 07:02:54;;;;;;;9.50;9.10;;;;;;;;;;5102483;28;20020;-65
2023/01/21 07:05:19;;;;;;;9.75;9.35;;;;;;;;;;5097594;28;20022;-65
2023/01/21 07:07:44;;;;;;;9.63;9.23;;;;;;;;;;5102386;28;20020;-65
2023/01/21 07:10:10;;;;;;;10.57;10.07;;;;;;;;;;5083323;28;20043;-65
2023/01/21 07:12:35;;;;;;;10.27;9.77;;;;;;;;;;5095036;28;20517;-65
2023/01/21 07:15:01;;;;;;;10.20;9.70;;;;;;;;;;5101009;28;20393;-65
2023/01/21 07:17:26;;;;;;;9.90;9.50;;;;;;;;;;5080975;28;20367;-66
2023/01/21 07:19:51;;;;;;;10.00;9.60;;;;;;;;;;5099545;28;20058;-66
2023/01/21 07:22:16;;;;;;;10.10;9.63;;;;;;;;;;5080437;28;20127;-67
2023/01/21 07:24:42;;;;;;;9.75;9.35;;;;;;;;;;5087876;28;20019;-66
2023/01/21 07:27:07;;;;;;;10.45;9.95;;;;;;;;;;5097255;28;20133;-65
2023/01/21 07:29:32;;;;;;;10.85;10.35;;;;;;;;;;5099781;28;20016;-64
2023/01/21 07:31:58;;;;;;;11.18;10.68;;;;;;;;;;5093126;28;20542;-65
2023/01/21 07:34:23;;;;;;;10.25;9.75;;;;;;;;;;5095878;28;20020;-64
2023/01/21 07:36:48;;;;;;;10.65;10.15;;;;;;;;;;5104228;28;20023;-65
2023/01/21 07:39:14;;;;;;;10.50;10.00;;;;;;;;;;5076051;28;20391;-64
2023/01/21 07:41:39;;;;;;;10.10;9.70;;;;;;;;;;5094844;28;20031;-64
2023/01/21 07:44:04;;;;;;;10.25;9.77;;;;;;;;;;5081374;28;20020;-65
2023/01/21 07:46:32;;;;;;;10.00;9.60;;;;;;;;;;5101444;28;20020;-65
2023/01/21 07:48:57;;;;;;;10.10;9.70;;;;;;;;;;5098018;28;20041;-66
2023/01/21 07:51:22;;;;;;;10.02;9.63;;;;;;;;;;5099993;28;20507;-65
2023/01/21 07:53:47;;;;;;;10.40;9.90;;;;;;;;;;5097821;28;20081;-66
2023/01/21 07:56:13;;;;;;;10.43;9.93;;;;;;;;;;5094464;28;20040;-66
2023/01/21 07:58:39;;;;;;;9.80;9.40;;;;;;;;;;5103770;28;20028;-65
2023/01/21 08:01:08;;;;;;;10.55;10.05;;;;;;;;;;5101455;28;20023;-67
2023/01/21 08:03:34;;;;;;;10.63;10.13;;;;;;;;;;5089393;28;20012;-66
2023/01/21 08:05:59;;;;;;;10.20;9.80;;;;;;;;;;5096625;28;20364;-65
2023/01/21 08:08:25;;;;;;;10.20;9.80;;;;;;;;;;5094369;28;20016;-65
2023/01/21 08:10:51;;;;;;;10.18;9.77;;;;;;;;;;5101455;28;20543;-66
2023/01/21 08:13:17;;;;;;;10.88;10.38;;;;;;;;;;5090464;28;20020;-65
2023/01/21 08:15:42;;;;;;;10.50;10.00;;;;;;;;;;5101107;28;20019;-64
2023/01/21 08:18:08;;;;;;;10.35;9.88;;;;;;;;;;5106969;28;20026;-64
2023/01/21 08:20:33;;;;;;;10.70;10.20;;;;;;;;;;5101659;28;20020;-63
2023/01/21 08:22:59;;;;;;;10.57;10.07;;;;;;;;;;5089012;28;20027;-65
2023/01/21 08:25:24;;;;;;;10.98;10.48;;;;;;;;;;5088836;28;20042;-64
2023/01/21 08:27:50;;;;;;;10.70;10.20;;;;;;;;;;5093059;28;20027;-63
2023/01/21 08:30:15;;;;;;;10.43;9.93;;;;;;;;;;5088957;28;20024;-63
2023/01/21 08:32:40;;;;;;;10.32;9.85;;;;;;;;;;5105150;28;20020;-63
2023/01/21 08:35:06;;;;;;;10.20;9.80;;;;;;;;;;5097831;28;20502;-63
2023/01/21 08:37:31;;;;;;;10.65;10.15;;;;;;;;;;5102834;28;20103;-63
2023/01/21 08:39:57;;;;;;;10.52;10.02;;;;;;;;;;5089645;28;20036;-63
2023/01/21 08:42:22;;;;;;;10.85;10.35;;;;;;;;;;5097428;28;20016;-64
2023/01/21 08:44:49;;;;;;;10.00;9.60;;;;;;;;;;5090681;28;20032;-63
2023/01/21 08:47:15;;;;;;;10.50;10.00;;;;;;;;;;5093121;28;20008;-64
2023/01/21 08:49:40;;;;;;;10.73;10.23;;;;;;;;;;5099052;28;20767;-63
2023/01/21 08:52:06;;;;;;;10.52;10.02;;;;;;;;;;5093358;28;20078;-64
2023/01/21 08:54:31;;;;;;;10.13;9.73;;;;;;;;;;5097922;28;20031;-64
2023/01/21 08:56:56;;;;;;;10.13;9.73;;;;;;;;;;5089810;28;20052;-63
2023/01/21 08:59:27;;;;;;;9.98;9.57;;;;;;;;;;5096423;28;20084;-63
2023/01/21 09:01:53;;;;;;;10.23;9.80;;;;;;;;;;5103055;28;20038;-64
2023/01/21 09:04:18;;;;;;;9.93;9.52;;;;;;;;;;5093142;28;20016;-63
2023/01/21 09:06:43;;;;;;;10.10;9.70;;;;;;;;;;5105568;28;20385;-64
2023/01/21 09:09:10;;;;;;;10.00;9.60;;;;;;;;;;5093270;28;20031;-64
2023/01/21 09:11:35;;;;;;;10.13;9.73;;;;;;;;;;5095410;28;20016;-63
2023/01/21 09:14:02;;;;;;;10.48;9.98;;;;;;;;;;5089532;28;20155;-63
2023/01/21 09:16:30;;;;;;;10.55;10.05;;;;;;;;;;5091134;28;20024;-64
2023/01/21 09:18:55;;;;;;;10.10;9.70;;;;;;;;;;5096720;28;20076;-64
2023/01/21 09:21:20;;;;;;;10.75;10.25;;;;;;;;;;5097598;28;20115;-65
2023/01/21 09:23:46;;;;;;;10.55;10.05;;;;;;;;;;5101694;28;20185;-65
2023/01/21 09:26:11;;;;;;;10.63;10.13;;;;;;;;;;5101494;28;20020;-66
2023/01/21 09:28:37;;;;;;;10.82;10.32;;;;;;;;;;5106044;28;20038;-64
2023/01/21 09:31:04;;;;;;;10.25;9.82;;;;;;;;;;5090027;28;20508;-65
2023/01/21 09:33:30;;;;;;;9.73;9.32;;;;;;;;;;5098613;28;20038;-65
2023/01/21 09:35:56;;;;;;;10.43;9.93;;;;;;;;;;5104065;28;20019;-65
2023/01/21 09:38:22;;;;;;;9.73;9.32;;;;;;;;;;5098909;28;20051;-64
2023/01/21 09:40:47;;;;;;;10.15;9.75;;;;;;;;;;5103012;28;20047;-65
2023/01/21 09:43:20;;;;;;;9.88;9.48;;;;;;;;;;5098231;28;20024;-63
2023/01/21 09:45:47;;;;;;;10.48;9.98;;;;;;;;;;5103886;28;20021;-64
2023/01/21 09:48:20;;;;;;;10.95;10.45;;;;;;;;;;5099676;28;20466;-65
2023/01/21 09:50:48;;;;;;;10.13;9.67;;;;;;;;;;5090725;28;20047;-62
2023/01/21 09:53:22;;;;;;;10.52;10.02;;;;;;;;;;5101837;28;20748;-63
2023/01/21 09:55:48;;;;;;;10.88;10.38;;;;;;;;;;5087925;28;20047;-63
2023/01/21 09:58:19;;;;;;;10.70;10.20;;;;;;;;;;5096894;28;20459;-63
2023/01/21 10:00:50;;;;;;;10.63;10.13;;;;;;;;;;5083789;28;20020;-66
2023/01/21 10:03:42;;;;;;;10.55;10.05;;;;;;;;;;5100107;28;20061;-66
2023/01/21 10:06:25;;;;;;;10.73;10.23;;;;;;;;;;5059749;28;20032;-64
2023/01/21 10:09:11;;;;;;;9.70;9.30;;;;;;;;;;5098846;28;20016;-65
2023/01/21 10:11:55;;;;;;;10.23;9.73;;;;;;;;;;5105874;28;20015;-64
2023/01/21 10:14:21;;;;;;;9.70;9.30;;;;;;;;;;5098206;28;20023;-64
2023/01/21 10:17:03;;;;;;;11.13;10.52;;;;;;;;;;5100566;28;20487;-64
2023/01/21 10:19:32;;;;;;;10.52;10.02;;;;;;;;;;5099189;28;20038;-66
2023/01/21 10:22:08;;;;;;;10.75;10.25;;;;;;;;;;5103789;28;20055;-65
2023/01/21 10:24:45;;;;;;;10.43;9.93;;;;;;;;;;5101001;28;20034;-65
2023/01/21 10:27:14;;;;;;;9.90;9.40;;;;;;;;;;5098883;28;20122;-64
2023/01/21 10:29:43;;;;;;;10.48;9.98;;;;;;;;;;5100770;28;20019;-64
2023/01/21 10:32:12;;;;;;;10.18;9.68;;;;;;;;;;5104189;28;20366;-65
2023/01/21 10:34:41;;;;;;;10.02;9.52;;;;;;;;;;5098372;28;20444;-65
2023/01/21 10:37:30;;;;;;;11.30;10.70;;;;;;;;;;5103005;28;20119;-64
2023/01/21 10:39:58;;;;;;;10.98;10.38;;;;;;;;;;5097070;28;20042;-63
2023/01/21 10:42:39;;;;;;;10.02;9.52;;;;;;;;;;5102603;28;20042;-64
2023/01/21 10:45:14;;;;;;;10.55;10.05;;;;;;;;;;5082281;28;20023;-64
2023/01/21 10:47:39;;;;;;;9.85;9.38;;;;;;;;;;5099929;28;20438;-65
2023/01/21 10:50:10;;;;;;;11.30;10.70;;;;;;;;;;5098830;28;20043;-65
2023/01/21 10:52:40;;;;;;;9.98;9.48;;;;;;;;;;5098947;28;20016;-63
2023/01/21 10:55:08;;;;;;;9.98;9.48;;;;;;;;;;5099239;28;20051;-64
2023/01/21 10:57:52;;;;;;;11.15;10.55;;;;;;;;;;5099521;28;20047;-64
2023/01/21 11:00:19;;;;;;;10.20;9.70;;;;;;;;;;5096835;28;20023;-64
2023/01/21 11:02:49;;;;;;;9.25;8.85;;;;;;;;;;5103221;28;20023;-63
2023/01/21 11:05:15;;;;;;;10.18;9.68;;;;;;;;;;5097013;28;20023;-66
2023/01/21 11:07:41;;;;;;;10.43;9.93;;;;;;;;;;5099083;28;20355;-64
2023/01/21 11:10:07;;;;;;;9.98;9.48;;;;;;;;;;5099016;28;20420;-65
2023/01/21 11:12:32;;;;;;;9.40;9.00;;;;;;;;;;5096361;28;20019;-66
2023/01/21 11:15:06;;;;;;;10.07;9.57;;;;;;;;;;5102155;28;20032;-64
2023/01/21 11:17:35;;;;;;;9.50;9.10;;;;;;;;;;5096703;28;20028;-64
2023/01/21 11:20:03;;;;;;;9.23;8.82;;;;;;;;;;5095958;28;20030;-64
2023/01/21 11:22:29;;;;;;;10.20;9.70;;;;;;;;;;5101265;28;20019;-65
2023/01/21 11:24:55;;;;;;;9.95;9.45;;;;;;;;;;5095803;28;20039;-64
2023/01/21 11:27:21;;;;;;;9.27;8.88;;;;;;;;;;5100980;28;20077;-64
2023/01/21 11:29:47;;;;;;;9.82;9.35;;;;;;;;;;5104212;28;20094;-64
2023/01/21 11:32:13;;;;;;;9.50;9.10;;;;;;;;;;5100295;28;20067;-65
2023/01/21 11:34:42;;;;;;;9.52;9.13;;;;;;;;;;5102296;28;20036;-64
2023/01/21 11:37:17;;;;;;;9.90;9.40;;;;;;;;;;5097639;28;20085;-64
2023/01/21 11:40:04;;;;;;;10.07;9.57;;;;;;;;;;5101411;28;20077;-64
2023/01/21 11:42:31;;;;;;;9.85;9.35;;;;;;;;;;5099494;28;20078;-64
2023/01/21 11:44:56;;;;;;;10.23;9.73;;;;;;;;;;5105069;28;20016;-63
2023/01/21 11:47:39;;;;;;;9.60;9.20;;;;;;;;;;5101951;28;20062;-64
2023/01/21 11:50:15;;;;;;;9.50;9.10;;;;;;;;;;5102477;28;20016;-63
2023/01/21 11:52:40;;;;;;;9.38;8.98;;;;;;;;;;5094421;28;20028;-63
2023/01/21 11:55:25;;;;;;;9.90;9.40;;;;;;;;;;5096661;28;20068;-63
2023/01/21 11:57:52;;;;;;;9.40;9.00;;;;;;;;;;5102262;28;20040;-65
2023/01/21 12:00:18;;;;;;;10.15;9.65;;;;;;;;;;5100268;28;20483;-64
2023/01/21 12:02:46;;;;;;;9.50;9.10;;;;;;;;;;5100929;28;20024;-63
2023/01/21 12:05:14;;;;;;;9.30;8.90;;;;;;;;;;5101566;28;20012;-64
2023/01/21 12:07:41;;;;;;;9.88;9.38;;;;;;;;;;5094221;28;20020;-64
2023/01/21 12:10:12;;;;;;;9.85;9.35;;;;;;;;;;5096345;28;20012;-65
2023/01/21 12:12:47;;;;;;;9.48;9.07;;;;;;;;;;5101729;28;20115;-64
2023/01/21 12:15:23;;;;;;;10.25;9.75;;;;;;;;;;5093356;28;20020;-64
2023/01/21 12:18:00;;;;;;;10.15;9.65;;;;;;;;;;5078043;28;20492;-66
2023/01/21 12:20:32;;;;;;;10.35;9.85;;;;;;;;;;5098610;28;20397;-64
2023/01/21 12:23:29;;;;;;;9.90;9.40;;;;;;;;;;5097625;28;20027;-64
2023/01/21 12:26:13;;;;;;;9.27;8.88;;;;;;;;;;5048587;28;20034;-65
2023/01/21 12:28:47;;;;;;;9.90;9.40;;;;;;;;;;5098512;28;20064;-65
2023/01/21 12:31:13;;;;;;;;;;;;;;;;;;5098339;28;20257;-64
2023/01/21 12:33:47;;;;;;;9.43;9.03;;;;;;;;;;5101568;28;19908;-64
2023/01/21 12:36:16;;;;;;;9.75;9.27;;;;;;;;;;5095673;28;20021;-63
2023/01/21 12:38:45;;;;;;;9.30;8.90;;;;;;;;;;5081625;28;20398;-63
2023/01/21 12:41:10;;;;;;;10.10;9.60;;;;;;;;;;5098578;28;20140;-65
2023/01/21 12:43:39;;;;;;;9.88;9.38;;;;;;;;;;5102393;28;20380;-64
2023/01/21 12:46:25;;;;;;;9.55;9.15;;;;;;;;;;5095235;28;20108;-65
2023/01/21 12:48:52;;;;;;;9.20;8.80;;;;;;;;;;5096512;28;21413;-63
2023/01/21 12:51:21;;;;;;;10.10;9.60;;;;;;;;;;5097092;28;20039;-67
2023/01/21 12:53:51;;;;;;;10.55;10.05;;;;;;;;;;5101397;28;20026;-63
2023/01/21 12:56:16;;;;;;;9.70;9.30;;;;;;;;;;5100485;28;20044;-65
2023/01/21 12:59:11;;;;;;;9.57;9.18;;;;;;;;;;5103113;28;20039;-65
2023/01/21 13:01:40;;;;;;;9.32;8.93;;;;;;;;;;5077124;28;20028;-64
2023/01/21 13:04:17;;;;;;;10.02;9.52;;;;;;;;;;5091865;28;20051;-64
2023/01/21 13:06:45;;;;;;;9.73;9.30;;;;;;;;;;5096110;28;20018;-64
2023/01/21 13:09:29;;;;;;;10.55;10.05;;;;;;;;;;5099779;28;20023;-63
2023/01/21 13:12:00;;;;;;;9.95;9.45;;;;;;;;;;5095498;28;20027;-63
2023/01/21 13:14:29;;;;;;;9.27;8.88;;;;;;;;;;5105267;28;20016;-65
2023/01/21 13:17:13;;;;;;;9.85;9.35;;;;;;;;;;5100828;28;20034;-65
2023/01/21 13:19:38;;;;;;;9.55;9.13;;;;;;;;;;5095244;28;20378;-65
2023/01/21 13:22:07;;;;;;;9.48;9.07;;;;;;;;;;5102348;28;20020;-63
2023/01/21 13:24:44;;;;;;;9.93;9.43;;;;;;;;;;5098239;28;20378;-66
2023/01/21 13:27:15;;;;;;;9.68;9.23;;;;;;;;;;5102446;28;20027;-64
2023/01/21 13:29:53;;;;;;;10.20;9.70;;;;;;;;;;5101314;28;20027;-64
2023/01/21 13:32:30;;;;;;;9.60;9.18;;;;;;;;;;5091043;28;20030;-65
2023/01/21 13:35:14;;;;;;;9.65;9.15;;;;;;;;;;5100364;28;20114;-66
2023/01/21 13:37:39;;;;;;;9.40;9.00;;;;;;;;;;5102890;28;20015;-65
2023/01/21 13:40:20;;;;;;;9.98;9.48;;;;;;;;;;5106689;28;20505;-65
2023/01/21 13:42:55;;;;;;;9.30;8.90;;;;;;;;;;5101335;28;20038;-65
2023/01/21 13:45:20;;;;;;;;;;;;;;;;;;5080055;28;20111;-65
2023/01/21 13:47:52;;;;;;;9.97;9.47;;;;;;;;;;5094994;28;20041;-65
2023/01/21 13:50:23;;;;;;;9.40;9.00;;;;;;;;;;5102742;28;20259;-65
2023/01/21 13:53:07;;;;;;;9.95;9.45;;;;;;;;;;5097640;28;20020;-65
2023/01/21 13:55:47;;;;;;;9.48;9.07;;;;;;;;;;5106369;28;20499;-65
2023/01/21 13:58:14;;;;;;;9.07;8.68;;;;;;;;;;5104111;28;20412;-65
2023/01/21 14:00:43;;;;;;;9.13;8.73;;;;;;;;;;5101326;28;20051;-64
2023/01/21 14:03:20;;;;;;;10.20;9.70;;;;;;;;;;5097684;28;20099;-65
2023/01/21 14:06:00;;;;;;;9.32;8.93;;;;;;;;;;5102512;28;20024;-64
2023/01/21 14:08:31;;;;;;;9.48;9.05;;;;;;;;;;5096799;28;20023;-64
2023/01/21 14:11:00;;;;;;;9.10;8.70;;;;;;;;;;5095243;28;20027;-65
2023/01/21 14:13:44;;;;;;;9.45;9.05;;;;;;;;;;5099298;28;20020;-64
2023/01/21 14:16:12;;;;;;;9.17;8.77;;;;;;;;;;5098169;28;20032;-65
2023/01/21 14:18:37;;;;;;;9.70;9.20;;;;;;;;;;5101159;28;20144;-65
2023/01/21 14:21:14;;;;;;;10.30;9.80;;;;;;;;;;5093245;28;20024;-64
2023/01/21 14:23:48;;;;;;;9.80;9.30;;;;;;;;;;5097874;28;20432;-65
2023/01/21 14:26:16;;;;;;;9.85;9.35;;;;;;;;;;5100864;28;20077;-65
2023/01/21 14:29:01;;;;;;;9.45;9.05;;;;;;;;;;5096218;28;20054;-65
2023/01/21 14:31:56;;;;;;;9.10;8.70;;;;;;;;;;5102541;28;20062;-65
2023/01/21 14:34:24;;;;;;;9.32;8.93;;;;;;;;;;5019491;28;20443;-64
2023/01/21 14:36:50;;;;;;;9.25;8.85;;;;;;;;;;5104520;28;20019;-65
2023/01/21 14:39:18;;;;;;;9.88;9.38;;;;;;;;;;5098887;28;20020;-65
2023/01/21 14:41:53;;;;;;;9.40;9.00;;;;;;;;;;5102858;28;20023;-65
2023/01/21 14:44:44;;;;;;;9.10;8.70;;;;;;;;;;5102449;28;20059;-64
2023/01/21 14:47:10;;;;;;;10.18;9.68;;;;;;;;;;5066826;28;20031;-65
2023/01/21 14:49:40;;;;;;;9.38;8.98;;;;;;;;;;5077916;28;20418;-64